Meath Environmental Platform

Observations

Time Sensor AQI SAQ Temp °C Hum % Pres Pa CO μg/m³ H₂S μg/m³ NO μg/m³ NO₂ μg/m³ O₃ μg/m³ SO₂ μg/m³ CO₂e PPM VOC PPM PM1 μg/m³ PM2.5 μg/m³ PM4 μg/m³ PM10 μg/m³ TPS µm
Thursday 13 August 2026
03:43 Trim Market St 2 21.6 73 36,734 0.07 0 1.11 17.27 41.73 0 4.99 6.27 9.96
03:42 Trim Patrick St 2 21 77 38,460 0.01 7.21 1.47 17.76 26.75 5.61 8 12.47 13.72
03:42 Trim Market St 2 21.5 73 37,325 0.07 0 1.13 18.87 38.28 0 2.85 4.83 8.75
03:41 Trim Patrick St 2 21 77 38,460 0 10.19 1.44 18.06 35.36 6.35 6.29 10.36 11.4
03:41 Trim Market St 2 21.6 73 38,018 0.07 0 1.16 16.19 43.35 0 2.85 4.35 7.53
03:40 Trim Patrick St 2 21 77 38,460 0.01 9.93 1.36 23.55 29.07 5.55 6.29 11.08 12.19
03:40 Trim Market St 2 21.6 73 38,613 0.07 1.24 1.17 23.8 38.05 0 3.56 3.87 6.92
03:39 Trim Patrick St 2 21 76 38,460 0.01 10.88 1.29 18.7 33.97 5.99 7.14 10.41 11.45
03:39 Trim Market St 2 21.6 73 39,498 0.07 0 1.13 17.12 41.52 0 4.28 5.32 8.14
03:38 Trim Patrick St 2 21 76 38,460 0.01 9.46 1.24 18.16 32.5 5.97 6.29 11.82 13
03:38 Trim Market St 2 21.6 73 39,990 0.07 0 1.21 16.23 42.21 0 2.14 4.84 8.75
03:37 Trim Patrick St 2 21 76 38,460 0.02 12.51 1.2 26.92 31.84 5.73 8 11.89 13.08
03:37 Trim Market St 2 21.6 73 40,475 0.07 1.4 1.19 20.1 43.53 0 3.56 4.85 8.14
03:36 Trim Patrick St 2 21 77 38,460 0 11.93 1.28 29.15 26.57 5.31 8 11.76 12.93
03:36 Trim Market St 2 21.6 73 41,034 0.08 1.67 1.14 25.53 37.01 0 1.43 3.4 5.7
03:35 Trim Patrick St 2 21 77 38,460 0.01 12.73 1.32 33.18 25.31 5.44 8 11.07 12.17
03:35 Trim Market St 2 21.5 73 41,484 0.08 0 1.12 15.73 50.52 0 4.28 6.3 9.36
03:34 Trim Patrick St 2 21 77 38,460 0.01 9.11 1.37 12.21 39.76 6.71 8.86 13.18 14.5
03:33 Trim Patrick St 2 21 77 38,460 0 16 1.33 28.64 29.76 5.89 8.86 11.77 12.95
03:32 Trim Patrick St 2 21 77 38,460 0 12.65 1.34 37.05 22.25 4.73 6.29 8.93 9.83